sensor_id;sensor_type;location;lat;lon;timestamp;P1;durP1;ratioP1;P2;durP2;ratioP2
72354;SDS011;60314;55.040;73.076;2022-11-20T00:01:31;15.90;;;5.05;;
72354;SDS011;60314;55.040;73.076;2022-11-20T00:04:08;19.33;;;5.47;;
72354;SDS011;60314;55.040;73.076;2022-11-20T00:06:36;17.45;;;4.18;;
72354;SDS011;60314;55.040;73.076;2022-11-20T00:09:03;13.13;;;4.65;;
72354;SDS011;60314;55.040;73.076;2022-11-20T00:11:31;12.38;;;4.05;;
72354;SDS011;60314;55.040;73.076;2022-11-20T00:13:59;14.15;;;4.75;;
72354;SDS011;60314;55.040;73.076;2022-11-20T00:16:27;13.98;;;4.40;;
72354;SDS011;60314;55.040;73.076;2022-11-20T00:18:59;15.80;;;4.45;;
72354;SDS011;60314;55.040;73.076;2022-11-20T00:21:27;16.23;;;4.50;;
72354;SDS011;60314;55.040;73.076;2022-11-20T00:23:55;15.77;;;4.75;;
72354;SDS011;60314;55.040;73.076;2022-11-20T00:26:24;13.05;;;4.70;;
72354;SDS011;60314;55.040;73.076;2022-11-20T00:28:58;13.88;;;4.55;;
72354;SDS011;60314;55.040;73.076;2022-11-20T00:31:31;14.02;;;4.53;;
72354;SDS011;60314;55.040;73.076;2022-11-20T00:33:59;11.77;;;4.00;;
72354;SDS011;60314;55.040;73.076;2022-11-20T00:36:26;11.25;;;3.95;;
72354;SDS011;60314;55.040;73.076;2022-11-20T00:38:54;14.15;;;4.78;;
72354;SDS011;60314;55.040;73.076;2022-11-20T00:41:22;15.93;;;4.30;;
72354;SDS011;60314;55.040;73.076;2022-11-20T00:43:53;11.48;;;4.63;;
72354;SDS011;60314;55.040;73.076;2022-11-20T00:46:21;13.55;;;5.25;;
72354;SDS011;60314;55.040;73.076;2022-11-20T00:48:49;14.85;;;4.35;;
72354;SDS011;60314;55.040;73.076;2022-11-20T00:51:17;15.02;;;5.28;;
72354;SDS011;60314;55.040;73.076;2022-11-20T00:53:50;13.55;;;4.63;;
72354;SDS011;60314;55.040;73.076;2022-11-20T00:56:18;16.20;;;5.30;;
72354;SDS011;60314;55.040;73.076;2022-11-20T00:58:54;10.90;;;4.22;;
72354;SDS011;60314;55.040;73.076;2022-11-20T01:01:22;14.35;;;4.70;;
72354;SDS011;60314;55.040;73.076;2022-11-20T01:04:00;14.73;;;4.18;;
72354;SDS011;60314;55.040;73.076;2022-11-20T01:06:28;15.77;;;4.57;;
72354;SDS011;60314;55.040;73.076;2022-11-20T01:09:06;11.77;;;4.15;;
72354;SDS011;60314;55.040;73.076;2022-11-20T01:11:44;11.23;;;4.10;;
72354;SDS011;60314;55.040;73.076;2022-11-20T01:14:15;15.60;;;4.38;;
72354;SDS011;60314;55.040;73.076;2022-11-20T01:16:45;13.10;;;3.92;;
72354;SDS011;60314;55.040;73.076;2022-11-20T01:19:16;12.80;;;5.35;;
72354;SDS011;60314;55.040;73.076;2022-11-20T01:21:44;13.50;;;5.20;;
72354;SDS011;60314;55.040;73.076;2022-11-20T01:24:13;14.05;;;4.63;;
72354;SDS011;60314;55.040;73.076;2022-11-20T01:26:44;15.60;;;4.18;;
72354;SDS011;60314;55.040;73.076;2022-11-20T01:29:14;12.73;;;4.45;;
72354;SDS011;60314;55.040;73.076;2022-11-20T01:31:48;16.15;;;4.25;;
72354;SDS011;60314;55.040;73.076;2022-11-20T01:34:18;11.43;;;3.63;;
72354;SDS011;60314;55.040;73.076;2022-11-20T01:36:46;15.27;;;3.90;;
72354;SDS011;60314;55.040;73.076;2022-11-20T01:39:19;15.32;;;3.90;;
72354;SDS011;60314;55.040;73.076;2022-11-20T01:41:47;13.40;;;4.15;;
72354;SDS011;60314;55.040;73.076;2022-11-20T01:47:19;14.27;;;4.18;;
72354;SDS011;60314;55.040;73.076;2022-11-20T01:49:58;9.88;;;3.80;;
72354;SDS011;60314;55.040;73.076;2022-11-20T01:52:34;13.45;;;3.53;;
72354;SDS011;60314;55.040;73.076;2022-11-20T01:55:06;13.45;;;4.00;;
72354;SDS011;60314;55.040;73.076;2022-11-20T01:57:35;14.65;;;4.65;;
72354;SDS011;60314;55.040;73.076;2022-11-20T02:00:05;11.57;;;3.80;;
72354;SDS011;60314;55.040;73.076;2022-11-20T02:02:41;11.85;;;4.03;;
72354;SDS011;60314;55.040;73.076;2022-11-20T02:08:10;13.95;;;4.07;;
72354;SDS011;60314;55.040;73.076;2022-11-20T02:10:47;14.48;;;3.90;;
72354;SDS011;60314;55.040;73.076;2022-11-20T02:13:13;12.40;;;4.03;;
72354;SDS011;60314;55.040;73.076;2022-11-20T02:15:59;12.85;;;4.07;;
72354;SDS011;60314;55.040;73.076;2022-11-20T02:18:31;14.75;;;4.53;;
72354;SDS011;60314;55.040;73.076;2022-11-20T02:21:21;14.80;;;4.05;;
72354;SDS011;60314;55.040;73.076;2022-11-20T02:26:28;12.32;;;4.47;;
72354;SDS011;60314;55.040;73.076;2022-11-20T02:28:58;13.85;;;4.65;;
72354;SDS011;60314;55.040;73.076;2022-11-20T02:31:26;13.18;;;4.78;;
72354;SDS011;60314;55.040;73.076;2022-11-20T02:33:54;16.88;;;5.28;;
72354;SDS011;60314;55.040;73.076;2022-11-20T02:36:22;17.63;;;5.47;;
72354;SDS011;60314;55.040;73.076;2022-11-20T02:38:55;9.38;;;3.47;;
72354;SDS011;60314;55.040;73.076;2022-11-20T02:41:32;13.50;;;4.65;;
72354;SDS011;60314;55.040;73.076;2022-11-20T02:44:02;15.63;;;4.53;;
72354;SDS011;60314;55.040;73.076;2022-11-20T02:46:30;12.32;;;4.43;;
72354;SDS011;60314;55.040;73.076;2022-11-20T02:49:03;21.58;;;4.85;;
72354;SDS011;60314;55.040;73.076;2022-11-20T02:51:35;26.60;;;6.30;;
72354;SDS011;60314;55.040;73.076;2022-11-20T02:54:01;17.15;;;5.15;;
72354;SDS011;60314;55.040;73.076;2022-11-20T02:56:29;13.50;;;5.15;;
72354;SDS011;60314;55.040;73.076;2022-11-20T02:59:07;14.23;;;4.38;;
72354;SDS011;60314;55.040;73.076;2022-11-20T03:01:35;14.85;;;4.82;;
72354;SDS011;60314;55.040;73.076;2022-11-20T03:04:02;14.88;;;5.30;;
72354;SDS011;60314;55.040;73.076;2022-11-20T03:06:28;14.48;;;4.75;;
72354;SDS011;60314;55.040;73.076;2022-11-20T03:08:59;11.90;;;4.60;;
72354;SDS011;60314;55.040;73.076;2022-11-20T03:11:35;14.90;;;3.63;;
72354;SDS011;60314;55.040;73.076;2022-11-20T03:14:06;9.93;;;4.28;;
72354;SDS011;60314;55.040;73.076;2022-11-20T03:16:40;11.77;;;3.53;;
72354;SDS011;60314;55.040;73.076;2022-11-20T03:19:08;12.90;;;3.50;;
72354;SDS011;60314;55.040;73.076;2022-11-20T03:21:44;11.02;;;4.50;;
72354;SDS011;60314;55.040;73.076;2022-11-20T03:24:10;10.02;;;3.78;;
72354;SDS011;60314;55.040;73.076;2022-11-20T03:26:37;14.98;;;4.07;;
72354;SDS011;60314;55.040;73.076;2022-11-20T03:29:05;12.00;;;4.13;;
72354;SDS011;60314;55.040;73.076;2022-11-20T03:31:33;11.13;;;3.70;;
72354;SDS011;60314;55.040;73.076;2022-11-20T03:34:02;9.75;;;4.05;;
72354;SDS011;60314;55.040;73.076;2022-11-20T03:36:35;11.27;;;4.20;;
72354;SDS011;60314;55.040;73.076;2022-11-20T03:39:09;13.88;;;4.20;;
72354;SDS011;60314;55.040;73.076;2022-11-20T03:41:37;10.18;;;4.03;;
72354;SDS011;60314;55.040;73.076;2022-11-20T03:44:09;10.13;;;3.55;;
72354;SDS011;60314;55.040;73.076;2022-11-20T03:46:42;12.40;;;3.83;;
72354;SDS011;60314;55.040;73.076;2022-11-20T03:49:08;11.43;;;3.00;;
72354;SDS011;60314;55.040;73.076;2022-11-20T03:51:35;8.88;;;3.33;;
72354;SDS011;60314;55.040;73.076;2022-11-20T03:54:05;10.82;;;3.83;;
72354;SDS011;60314;55.040;73.076;2022-11-20T03:56:36;9.93;;;3.13;;
72354;SDS011;60314;55.040;73.076;2022-11-20T03:59:04;11.23;;;3.88;;
72354;SDS011;60314;55.040;73.076;2022-11-20T04:01:31;14.40;;;3.88;;
72354;SDS011;60314;55.040;73.076;2022-11-20T04:04:04;12.20;;;3.88;;
72354;SDS011;60314;55.040;73.076;2022-11-20T04:06:36;10.40;;;3.83;;
72354;SDS011;60314;55.040;73.076;2022-11-20T04:09:04;13.68;;;4.13;;
72354;SDS011;60314;55.040;73.076;2022-11-20T04:11:32;9.07;;;3.20;;
72354;SDS011;60314;55.040;73.076;2022-11-20T04:14:05;11.30;;;3.70;;
72354;SDS011;60314;55.040;73.076;2022-11-20T04:16:38;11.88;;;3.47;;
72354;SDS011;60314;55.040;73.076;2022-11-20T04:19:05;14.45;;;3.35;;
72354;SDS011;60314;55.040;73.076;2022-11-20T04:21:34;8.02;;;2.88;;
72354;SDS011;60314;55.040;73.076;2022-11-20T04:24:01;8.40;;;3.47;;
72354;SDS011;60314;55.040;73.076;2022-11-20T04:26:40;12.30;;;3.45;;
72354;SDS011;60314;55.040;73.076;2022-11-20T04:29:10;11.95;;;3.75;;
72354;SDS011;60314;55.040;73.076;2022-11-20T04:31:37;8.63;;;3.30;;
72354;SDS011;60314;55.040;73.076;2022-11-20T04:34:05;11.00;;;3.97;;
72354;SDS011;60314;55.040;73.076;2022-11-20T04:36:33;12.38;;;3.00;;
72354;SDS011;60314;55.040;73.076;2022-11-20T04:39:03;8.15;;;2.53;;
72354;SDS011;60314;55.040;73.076;2022-11-20T04:44:00;8.10;;;3.22;;
72354;SDS011;60314;55.040;73.076;2022-11-20T04:46:32;9.00;;;3.17;;
72354;SDS011;60314;55.040;73.076;2022-11-20T04:49:01;11.00;;;3.88;;
72354;SDS011;60314;55.040;73.076;2022-11-20T04:51:27;8.80;;;2.60;;
72354;SDS011;60314;55.040;73.076;2022-11-20T04:53:59;11.02;;;2.90;;
72354;SDS011;60314;55.040;73.076;2022-11-20T04:56:26;9.48;;;1.98;;
72354;SDS011;60314;55.040;73.076;2022-11-20T04:58:52;6.43;;;2.35;;
72354;SDS011;60314;55.040;73.076;2022-11-20T05:01:22;11.57;;;2.60;;
72354;SDS011;60314;55.040;73.076;2022-11-20T05:03:50;8.75;;;2.65;;
72354;SDS011;60314;55.040;73.076;2022-11-20T05:06:19;7.07;;;2.40;;
72354;SDS011;60314;55.040;73.076;2022-11-20T05:08:47;7.90;;;2.60;;
72354;SDS011;60314;55.040;73.076;2022-11-20T05:11:23;10.43;;;2.80;;
72354;SDS011;60314;55.040;73.076;2022-11-20T05:13:57;5.60;;;2.22;;
72354;SDS011;60314;55.040;73.076;2022-11-20T05:16:24;3.75;;;1.33;;
72354;SDS011;60314;55.040;73.076;2022-11-20T05:18:59;8.60;;;2.20;;
72354;SDS011;60314;55.040;73.076;2022-11-20T05:21:25;7.78;;;2.58;;
72354;SDS011;60314;55.040;73.076;2022-11-20T05:23:51;8.02;;;2.45;;
72354;SDS011;60314;55.040;73.076;2022-11-20T05:26:23;10.25;;;2.58;;
72354;SDS011;60314;55.040;73.076;2022-11-20T05:29:06;7.10;;;2.38;;
72354;SDS011;60314;55.040;73.076;2022-11-20T05:31:32;5.38;;;1.98;;
72354;SDS011;60314;55.040;73.076;2022-11-20T05:33:59;10.38;;;2.88;;
72354;SDS011;60314;55.040;73.076;2022-11-20T05:36:26;10.88;;;3.20;;
72354;SDS011;60314;55.040;73.076;2022-11-20T05:38:52;5.45;;;1.75;;
72354;SDS011;60314;55.040;73.076;2022-11-20T05:41:19;9.48;;;2.55;;
72354;SDS011;60314;55.040;73.076;2022-11-20T05:43:46;6.45;;;1.92;;
72354;SDS011;60314;55.040;73.076;2022-11-20T05:46:15;6.57;;;2.00;;
72354;SDS011;60314;55.040;73.076;2022-11-20T05:48:45;5.63;;;1.83;;
72354;SDS011;60314;55.040;73.076;2022-11-20T05:51:22;5.35;;;1.90;;
72354;SDS011;60314;55.040;73.076;2022-11-20T05:53:51;5.88;;;1.88;;
72354;SDS011;60314;55.040;73.076;2022-11-20T05:56:18;3.72;;;1.60;;
72354;SDS011;60314;55.040;73.076;2022-11-20T05:58:51;5.15;;;2.17;;
72354;SDS011;60314;55.040;73.076;2022-11-20T06:01:21;8.13;;;2.08;;
72354;SDS011;60314;55.040;73.076;2022-11-20T06:03:49;4.85;;;1.88;;
72354;SDS011;60314;55.040;73.076;2022-11-20T06:06:26;7.72;;;1.65;;
72354;SDS011;60314;55.040;73.076;2022-11-20T06:08:53;5.88;;;2.08;;
72354;SDS011;60314;55.040;73.076;2022-11-20T06:11:21;5.55;;;1.23;;
72354;SDS011;60314;55.040;73.076;2022-11-20T06:13:50;6.28;;;1.67;;
72354;SDS011;60314;55.040;73.076;2022-11-20T06:16:18;7.40;;;2.15;;
72354;SDS011;60314;55.040;73.076;2022-11-20T06:18:45;5.65;;;1.75;;
72354;SDS011;60314;55.040;73.076;2022-11-20T06:21:22;6.50;;;2.42;;
72354;SDS011;60314;55.040;73.076;2022-11-20T06:23:50;4.88;;;1.92;;
72354;SDS011;60314;55.040;73.076;2022-11-20T06:26:19;5.50;;;1.92;;
72354;SDS011;60314;55.040;73.076;2022-11-20T06:28:50;7.55;;;2.30;;
72354;SDS011;60314;55.040;73.076;2022-11-20T06:31:18;6.95;;;2.17;;
72354;SDS011;60314;55.040;73.076;2022-11-20T06:33:47;7.45;;;2.20;;
72354;SDS011;60314;55.040;73.076;2022-11-20T06:36:15;9.05;;;2.60;;
72354;SDS011;60314;55.040;73.076;2022-11-20T06:38:43;3.85;;;1.08;;
72354;SDS011;60314;55.040;73.076;2022-11-20T06:41:12;5.13;;;1.40;;
72354;SDS011;60314;55.040;73.076;2022-11-20T06:43:40;7.20;;;2.58;;
72354;SDS011;60314;55.040;73.076;2022-11-20T06:46:12;9.13;;;2.05;;
72354;SDS011;60314;55.040;73.076;2022-11-20T06:48:40;8.93;;;2.85;;
72354;SDS011;60314;55.040;73.076;2022-11-20T06:51:06;10.02;;;4.07;;
72354;SDS011;60314;55.040;73.076;2022-11-20T06:53:33;7.78;;;3.60;;
72354;SDS011;60314;55.040;73.076;2022-11-20T06:56:00;8.23;;;2.28;;
72354;SDS011;60314;55.040;73.076;2022-11-20T06:58:27;9.63;;;2.80;;
72354;SDS011;60314;55.040;73.076;2022-11-20T07:01:29;11.10;;;3.25;;
72354;SDS011;60314;55.040;73.076;2022-11-20T07:03:58;7.68;;;2.55;;
72354;SDS011;60314;55.040;73.076;2022-11-20T07:06:25;8.73;;;3.20;;
72354;SDS011;60314;55.040;73.076;2022-11-20T07:08:51;6.30;;;2.25;;
72354;SDS011;60314;55.040;73.076;2022-11-20T07:11:21;4.50;;;1.88;;
72354;SDS011;60314;55.040;73.076;2022-11-20T07:13:47;5.75;;;2.45;;
72354;SDS011;60314;55.040;73.076;2022-11-20T07:16:14;10.27;;;3.42;;
72354;SDS011;60314;55.040;73.076;2022-11-20T07:18:45;6.97;;;2.30;;
72354;SDS011;60314;55.040;73.076;2022-11-20T07:21:12;10.23;;;2.67;;
72354;SDS011;60314;55.040;73.076;2022-11-20T07:23:38;5.85;;;2.63;;
72354;SDS011;60314;55.040;73.076;2022-11-20T07:26:06;6.82;;;1.88;;
72354;SDS011;60314;55.040;73.076;2022-11-20T07:28:40;9.18;;;2.60;;
72354;SDS011;60314;55.040;73.076;2022-11-20T07:31:09;8.50;;;3.38;;
72354;SDS011;60314;55.040;73.076;2022-11-20T07:33:36;6.03;;;2.30;;
72354;SDS011;60314;55.040;73.076;2022-11-20T07:36:02;15.27;;;2.42;;
72354;SDS011;60314;55.040;73.076;2022-11-20T07:38:39;8.27;;;2.38;;
72354;SDS011;60314;55.040;73.076;2022-11-20T07:41:12;10.07;;;3.42;;
72354;SDS011;60314;55.040;73.076;2022-11-20T07:43:39;4.80;;;2.08;;
72354;SDS011;60314;55.040;73.076;2022-11-20T07:46:05;8.57;;;2.45;;
72354;SDS011;60314;55.040;73.076;2022-11-20T07:48:42;7.18;;;2.42;;
72354;SDS011;60314;55.040;73.076;2022-11-20T07:51:18;8.63;;;2.28;;
72354;SDS011;60314;55.040;73.076;2022-11-20T07:53:45;8.07;;;2.40;;
72354;SDS011;60314;55.040;73.076;2022-11-20T07:56:11;12.55;;;2.28;;
72354;SDS011;60314;55.040;73.076;2022-11-20T07:58:39;10.75;;;2.85;;
72354;SDS011;60314;55.040;73.076;2022-11-20T08:01:06;18.02;;;3.25;;
72354;SDS011;60314;55.040;73.076;2022-11-20T08:03:33;17.05;;;2.92;;
72354;SDS011;60314;55.040;73.076;2022-11-20T08:06:03;9.65;;;2.53;;
72354;SDS011;60314;55.040;73.076;2022-11-20T08:08:30;17.40;;;3.00;;
72354;SDS011;60314;55.040;73.076;2022-11-20T08:10:57;7.95;;;1.90;;
72354;SDS011;60314;55.040;73.076;2022-11-20T08:13:43;10.73;;;2.15;;
72354;SDS011;60314;55.040;73.076;2022-11-20T08:16:29;11.18;;;2.78;;
72354;SDS011;60314;55.040;73.076;2022-11-20T08:18:56;8.10;;;2.35;;
72354;SDS011;60314;55.040;73.076;2022-11-20T08:21:23;8.57;;;2.08;;
72354;SDS011;60314;55.040;73.076;2022-11-20T08:24:00;9.18;;;2.83;;
72354;SDS011;60314;55.040;73.076;2022-11-20T08:26:31;4.85;;;1.40;;
72354;SDS011;60314;55.040;73.076;2022-11-20T08:29:23;4.65;;;1.65;;
72354;SDS011;60314;55.040;73.076;2022-11-20T08:31:50;11.68;;;2.65;;
72354;SDS011;60314;55.040;73.076;2022-11-20T08:34:16;7.38;;;2.60;;
72354;SDS011;60314;55.040;73.076;2022-11-20T08:36:49;7.93;;;2.20;;
72354;SDS011;60314;55.040;73.076;2022-11-20T08:39:20;7.47;;;2.30;;
72354;SDS011;60314;55.040;73.076;2022-11-20T08:41:47;11.80;;;3.15;;
72354;SDS011;60314;55.040;73.076;2022-11-20T08:44:13;8.93;;;2.78;;
72354;SDS011;60314;55.040;73.076;2022-11-20T08:46:40;10.02;;;2.60;;
72354;SDS011;60314;55.040;73.076;2022-11-20T08:49:11;7.60;;;1.85;;
72354;SDS011;60314;55.040;73.076;2022-11-20T08:51:39;10.40;;;2.50;;
72354;SDS011;60314;55.040;73.076;2022-11-20T08:54:17;13.77;;;3.35;;
72354;SDS011;60314;55.040;73.076;2022-11-20T08:56:45;11.07;;;2.10;;
72354;SDS011;60314;55.040;73.076;2022-11-20T08:59:22;6.00;;;2.05;;
72354;SDS011;60314;55.040;73.076;2022-11-20T09:01:58;8.02;;;2.25;;
72354;SDS011;60314;55.040;73.076;2022-11-20T09:04:25;16.88;;;2.78;;
72354;SDS011;60314;55.040;73.076;2022-11-20T09:06:52;5.57;;;1.95;;
72354;SDS011;60314;55.040;73.076;2022-11-20T09:09:18;8.40;;;1.80;;
72354;SDS011;60314;55.040;73.076;2022-11-20T09:11:45;8.98;;;2.60;;
72354;SDS011;60314;55.040;73.076;2022-11-20T09:14:12;7.40;;;2.40;;
72354;SDS011;60314;55.040;73.076;2022-11-20T09:16:39;8.93;;;2.38;;
72354;SDS011;60314;55.040;73.076;2022-11-20T09:19:13;6.65;;;1.98;;
72354;SDS011;60314;55.040;73.076;2022-11-20T09:21:52;11.23;;;2.65;;
72354;SDS011;60314;55.040;73.076;2022-11-20T09:24:19;9.13;;;2.60;;
72354;SDS011;60314;55.040;73.076;2022-11-20T09:27:00;13.10;;;3.28;;
72354;SDS011;60314;55.040;73.076;2022-11-20T09:29:28;12.95;;;2.22;;
72354;SDS011;60314;55.040;73.076;2022-11-20T09:32:05;9.27;;;2.38;;
72354;SDS011;60314;55.040;73.076;2022-11-20T09:34:31;6.95;;;1.67;;
72354;SDS011;60314;55.040;73.076;2022-11-20T09:37:03;11.48;;;2.28;;
72354;SDS011;60314;55.040;73.076;2022-11-20T09:39:39;7.43;;;2.10;;
72354;SDS011;60314;55.040;73.076;2022-11-20T09:47:26;8.63;;;2.43;;
72354;SDS011;60314;55.040;73.076;2022-11-20T09:53:01;7.50;;;2.03;;
72354;SDS011;60314;55.040;73.076;2022-11-20T09:55:36;7.95;;;2.40;;
72354;SDS011;60314;55.040;73.076;2022-11-20T09:58:16;5.70;;;1.95;;
72354;SDS011;60314;55.040;73.076;2022-11-20T10:00:56;13.65;;;2.83;;
72354;SDS011;60314;55.040;73.076;2022-11-20T10:03:37;7.53;;;2.72;;
72354;SDS011;60314;55.040;73.076;2022-11-20T10:06:34;5.55;;;1.50;;
72354;SDS011;60314;55.040;73.076;2022-11-20T10:14:38;6.55;;;1.90;;
72354;SDS011;60314;55.040;73.076;2022-11-20T10:20:40;6.85;;;1.85;;
72354;SDS011;60314;55.040;73.076;2022-11-20T10:25:59;7.00;;;1.83;;
72354;SDS011;60314;55.040;73.076;2022-11-20T10:34:21;7.22;;;2.17;;
72354;SDS011;60314;55.040;73.076;2022-11-20T10:50:34;12.10;;;3.00;;
72354;SDS011;60314;55.040;73.076;2022-11-20T10:53:08;7.40;;;2.73;;
72354;SDS011;60314;55.040;73.076;2022-11-20T10:55:52;3.80;;;1.63;;
72354;SDS011;60314;55.040;73.076;2022-11-20T10:58:45;6.75;;;1.88;;
72354;SDS011;60314;55.040;73.076;2022-11-20T11:01:23;7.95;;;2.65;;
72354;SDS011;60314;55.040;73.076;2022-11-20T11:03:57;10.85;;;3.00;;
72354;SDS011;60314;55.040;73.076;2022-11-20T11:06:28;7.90;;;2.38;;
72354;SDS011;60314;55.040;73.076;2022-11-20T11:09:10;6.43;;;2.05;;
72354;SDS011;60314;55.040;73.076;2022-11-20T11:11:43;4.47;;;1.20;;
72354;SDS011;60314;55.040;73.076;2022-11-20T11:14:14;7.18;;;2.28;;
72354;SDS011;60314;55.040;73.076;2022-11-20T11:16:51;8.73;;;2.80;;
72354;SDS011;60314;55.040;73.076;2022-11-20T11:19:29;9.68;;;2.88;;
72354;SDS011;60314;55.040;73.076;2022-11-20T11:22:00;6.10;;;2.05;;
72354;SDS011;60314;55.040;73.076;2022-11-20T11:24:51;5.60;;;2.15;;
72354;SDS011;60314;55.040;73.076;2022-11-20T11:27:18;9.80;;;2.65;;
72354;SDS011;60314;55.040;73.076;2022-11-20T11:29:45;8.45;;;2.00;;
72354;SDS011;60314;55.040;73.076;2022-11-20T11:32:18;5.70;;;2.33;;
72354;SDS011;60314;55.040;73.076;2022-11-20T11:35:03;8.50;;;2.30;;
72354;SDS011;60314;55.040;73.076;2022-11-20T11:37:33;4.93;;;1.55;;
72354;SDS011;60314;55.040;73.076;2022-11-20T11:40:02;8.43;;;2.67;;
72354;SDS011;60314;55.040;73.076;2022-11-20T11:42:30;6.65;;;2.25;;
72354;SDS011;60314;55.040;73.076;2022-11-20T11:44:58;6.28;;;2.28;;
72354;SDS011;60314;55.040;73.076;2022-11-20T12:03:53;9.75;;;3.08;;
72354;SDS011;60314;55.040;73.076;2022-11-20T12:06:37;4.95;;;2.10;;
72354;SDS011;60314;55.040;73.076;2022-11-20T12:09:09;9.55;;;2.47;;
72354;SDS011;60314;55.040;73.076;2022-11-20T12:11:45;7.82;;;2.38;;
72354;SDS011;60314;55.040;73.076;2022-11-20T12:14:23;11.50;;;2.78;;
72354;SDS011;60314;55.040;73.076;2022-11-20T12:17:00;9.30;;;3.00;;
72354;SDS011;60314;55.040;73.076;2022-11-20T12:19:33;5.43;;;2.38;;
72354;SDS011;60314;55.040;73.076;2022-11-20T12:25:07;8.57;;;2.83;;
72354;SDS011;60314;55.040;73.076;2022-11-20T12:31:42;5.32;;;2.28;;
72354;SDS011;60314;55.040;73.076;2022-11-20T12:34:17;13.77;;;3.45;;
72354;SDS011;60314;55.040;73.076;2022-11-20T12:39:50;11.48;;;2.60;;
72354;SDS011;60314;55.040;73.076;2022-11-20T12:54:09;8.68;;;3.10;;
72354;SDS011;60314;55.040;73.076;2022-11-20T13:08:07;7.80;;;3.30;;
72354;SDS011;60314;55.040;73.076;2022-11-20T13:10:59;7.15;;;2.28;;
72354;SDS011;60314;55.040;73.076;2022-11-20T13:19:15;9.38;;;2.58;;
72354;SDS011;60314;55.040;73.076;2022-11-20T13:21:45;9.55;;;3.40;;
72354;SDS011;60314;55.040;73.076;2022-11-20T13:26:47;6.68;;;2.70;;
72354;SDS011;60314;55.040;73.076;2022-11-20T13:29:17;9.43;;;2.88;;
72354;SDS011;60314;55.040;73.076;2022-11-20T13:31:49;9.85;;;2.83;;
72354;SDS011;60314;55.040;73.076;2022-11-20T13:34:25;11.43;;;3.92;;
72354;SDS011;60314;55.040;73.076;2022-11-20T13:36:53;4.32;;;1.70;;
72354;SDS011;60314;55.040;73.076;2022-11-20T13:39:34;9.63;;;3.22;;
72354;SDS011;60314;55.040;73.076;2022-11-20T13:44:39;6.18;;;2.45;;
72354;SDS011;60314;55.040;73.076;2022-11-20T13:47:26;8.95;;;2.85;;
72354;SDS011;60314;55.040;73.076;2022-11-20T13:50:03;8.43;;;3.50;;
72354;SDS011;60314;55.040;73.076;2022-11-20T13:55:23;12.43;;;3.95;;
72354;SDS011;60314;55.040;73.076;2022-11-20T14:01:18;9.43;;;3.53;;
72354;SDS011;60314;55.040;73.076;2022-11-20T14:03:48;10.65;;;3.75;;
72354;SDS011;60314;55.040;73.076;2022-11-20T14:06:19;9.93;;;3.05;;
72354;SDS011;60314;55.040;73.076;2022-11-20T14:08:55;11.45;;;2.67;;
72354;SDS011;60314;55.040;73.076;2022-11-20T14:11:28;14.48;;;3.75;;
72354;SDS011;60314;55.040;73.076;2022-11-20T14:13:57;13.07;;;3.58;;
72354;SDS011;60314;55.040;73.076;2022-11-20T14:16:26;10.32;;;3.60;;
72354;SDS011;60314;55.040;73.076;2022-11-20T14:18:55;9.48;;;2.80;;
72354;SDS011;60314;55.040;73.076;2022-11-20T14:21:26;11.00;;;3.42;;
72354;SDS011;60314;55.040;73.076;2022-11-20T14:24:03;13.18;;;3.83;;
72354;SDS011;60314;55.040;73.076;2022-11-20T14:26:35;14.95;;;4.72;;
72354;SDS011;60314;55.040;73.076;2022-11-20T14:29:23;12.70;;;4.00;;
72354;SDS011;60314;55.040;73.076;2022-11-20T14:31:54;15.02;;;5.22;;
72354;SDS011;60314;55.040;73.076;2022-11-20T14:34:27;10.02;;;4.00;;
72354;SDS011;60314;55.040;73.076;2022-11-20T14:36:59;11.88;;;4.35;;
72354;SDS011;60314;55.040;73.076;2022-11-20T14:39:40;15.50;;;5.20;;
72354;SDS011;60314;55.040;73.076;2022-11-20T14:42:20;11.00;;;4.93;;
72354;SDS011;60314;55.040;73.076;2022-11-20T14:44:52;21.63;;;4.80;;
72354;SDS011;60314;55.040;73.076;2022-11-20T14:47:31;12.13;;;3.90;;
72354;SDS011;60314;55.040;73.076;2022-11-20T14:50:03;15.40;;;4.43;;
72354;SDS011;60314;55.040;73.076;2022-11-20T14:52:39;9.70;;;3.70;;
72354;SDS011;60314;55.040;73.076;2022-11-20T14:55:35;12.50;;;4.32;;
72354;SDS011;60314;55.040;73.076;2022-11-20T14:58:20;10.23;;;4.60;;
72354;SDS011;60314;55.040;73.076;2022-11-20T15:01:04;12.77;;;4.72;;
72354;SDS011;60314;55.040;73.076;2022-11-20T15:03:38;12.75;;;3.95;;
72354;SDS011;60314;55.040;73.076;2022-11-20T15:06:07;7.68;;;2.85;;
72354;SDS011;60314;55.040;73.076;2022-11-20T15:08:51;15.23;;;4.70;;
72354;SDS011;60314;55.040;73.076;2022-11-20T15:11:18;12.23;;;4.63;;
72354;SDS011;60314;55.040;73.076;2022-11-20T15:13:49;17.70;;;5.15;;
72354;SDS011;60314;55.040;73.076;2022-11-20T15:16:19;18.83;;;5.25;;
72354;SDS011;60314;55.040;73.076;2022-11-20T15:18:48;12.88;;;4.65;;
72354;SDS011;60314;55.040;73.076;2022-11-20T15:21:24;16.65;;;6.50;;
72354;SDS011;60314;55.040;73.076;2022-11-20T15:23:51;15.85;;;5.43;;
72354;SDS011;60314;55.040;73.076;2022-11-20T15:26:20;17.45;;;5.22;;
72354;SDS011;60314;55.040;73.076;2022-11-20T15:28:52;13.70;;;5.40;;
72354;SDS011;60314;55.040;73.076;2022-11-20T15:31:19;15.10;;;5.10;;
72354;SDS011;60314;55.040;73.076;2022-11-20T15:33:48;12.40;;;4.60;;
72354;SDS011;60314;55.040;73.076;2022-11-20T15:36:19;17.40;;;5.03;;
72354;SDS011;60314;55.040;73.076;2022-11-20T15:38:47;17.33;;;5.32;;
72354;SDS011;60314;55.040;73.076;2022-11-20T15:41:14;14.40;;;5.28;;
72354;SDS011;60314;55.040;73.076;2022-11-20T15:43:40;19.65;;;6.82;;
72354;SDS011;60314;55.040;73.076;2022-11-20T15:46:13;19.35;;;4.65;;
72354;SDS011;60314;55.040;73.076;2022-11-20T15:48:43;15.48;;;5.80;;
72354;SDS011;60314;55.040;73.076;2022-11-20T15:51:15;12.05;;;5.25;;
72354;SDS011;60314;55.040;73.076;2022-11-20T15:54:00;16.50;;;5.57;;
72354;SDS011;60314;55.040;73.076;2022-11-20T15:56:35;18.60;;;4.68;;
72354;SDS011;60314;55.040;73.076;2022-11-20T15:59:01;16.25;;;5.35;;
72354;SDS011;60314;55.040;73.076;2022-11-20T16:01:28;14.68;;;5.15;;
72354;SDS011;60314;55.040;73.076;2022-11-20T16:03:54;16.17;;;6.15;;
72354;SDS011;60314;55.040;73.076;2022-11-20T16:06:21;17.25;;;6.63;;
72354;SDS011;60314;55.040;73.076;2022-11-20T16:08:48;17.70;;;5.93;;
72354;SDS011;60314;55.040;73.076;2022-11-20T16:11:16;17.65;;;5.82;;
72354;SDS011;60314;55.040;73.076;2022-11-20T16:13:43;19.80;;;4.82;;
72354;SDS011;60314;55.040;73.076;2022-11-20T16:16:29;17.92;;;6.93;;
72354;SDS011;60314;55.040;73.076;2022-11-20T16:19:11;25.58;;;7.78;;
72354;SDS011;60314;55.040;73.076;2022-11-20T16:21:39;23.67;;;8.70;;
72354;SDS011;60314;55.040;73.076;2022-11-20T16:24:09;28.95;;;9.85;;
72354;SDS011;60314;55.040;73.076;2022-11-20T16:26:38;31.30;;;10.98;;
72354;SDS011;60314;55.040;73.076;2022-11-20T16:29:05;25.80;;;9.32;;
72354;SDS011;60314;55.040;73.076;2022-11-20T16:31:33;17.95;;;6.82;;
72354;SDS011;60314;55.040;73.076;2022-11-20T16:34:01;18.00;;;6.35;;
72354;SDS011;60314;55.040;73.076;2022-11-20T16:36:30;14.57;;;4.82;;
72354;SDS011;60314;55.040;73.076;2022-11-20T16:38:58;9.63;;;4.18;;
72354;SDS011;60314;55.040;73.076;2022-11-20T16:41:26;21.65;;;6.28;;
72354;SDS011;60314;55.040;73.076;2022-11-20T16:43:54;19.67;;;4.78;;
72354;SDS011;60314;55.040;73.076;2022-11-20T16:46:27;15.63;;;4.10;;
72354;SDS011;60314;55.040;73.076;2022-11-20T16:51:33;12.13;;;4.10;;
72354;SDS011;60314;55.040;73.076;2022-11-20T16:54:01;16.90;;;5.18;;